sensor_id;sensor_type;location;lat;lon;timestamp;P1;durP1;ratioP1;P2;durP2;ratioP2
54909;SDS011;63189;51.240;9.964;2023-02-01T00:00:55;16.38;;;3.22;;
54909;SDS011;63189;51.240;9.964;2023-02-01T00:03:20;21.15;;;3.75;;
54909;SDS011;63189;51.240;9.964;2023-02-01T00:05:54;14.25;;;3.00;;
54909;SDS011;63189;51.240;9.964;2023-02-01T00:08:20;15.98;;;3.35;;
54909;SDS011;63189;51.240;9.964;2023-02-01T00:10:46;14.50;;;2.85;;
54909;SDS011;63189;51.240;9.964;2023-02-01T00:13:11;15.88;;;4.25;;
54909;SDS011;63189;51.240;9.964;2023-02-01T00:15:38;15.13;;;3.33;;
54909;SDS011;63189;51.240;9.964;2023-02-01T00:18:04;12.30;;;3.70;;
54909;SDS011;63189;51.240;9.964;2023-02-01T00:20:29;14.65;;;3.10;;
54909;SDS011;63189;51.240;9.964;2023-02-01T00:22:57;14.90;;;4.57;;
54909;SDS011;63189;51.240;9.964;2023-02-01T00:25:34;14.93;;;4.18;;
54909;SDS011;63189;51.240;9.964;2023-02-01T00:27:59;15.43;;;2.90;;
54909;SDS011;63189;51.240;9.964;2023-02-01T00:30:27;17.00;;;3.42;;
54909;SDS011;63189;51.240;9.964;2023-02-01T00:32:53;9.43;;;2.90;;
54909;SDS011;63189;51.240;9.964;2023-02-01T00:35:18;12.65;;;3.00;;
54909;SDS011;63189;51.240;9.964;2023-02-01T00:37:43;11.93;;;2.85;;
54909;SDS011;63189;51.240;9.964;2023-02-01T00:40:10;15.95;;;3.97;;
54909;SDS011;63189;51.240;9.964;2023-02-01T00:42:35;20.30;;;3.65;;
54909;SDS011;63189;51.240;9.964;2023-02-01T00:45:01;11.40;;;2.78;;
54909;SDS011;63189;51.240;9.964;2023-02-01T00:47:26;9.35;;;2.85;;
54909;SDS011;63189;51.240;9.964;2023-02-01T00:49:51;16.52;;;3.25;;
54909;SDS011;63189;51.240;9.964;2023-02-01T00:52:17;14.95;;;3.75;;
54909;SDS011;63189;51.240;9.964;2023-02-01T00:54:42;13.80;;;3.28;;
54909;SDS011;63189;51.240;9.964;2023-02-01T00:57:07;15.45;;;3.67;;
54909;SDS011;63189;51.240;9.964;2023-02-01T00:59:33;17.08;;;3.83;;
54909;SDS011;63189;51.240;9.964;2023-02-01T01:02:00;16.77;;;3.67;;
54909;SDS011;63189;51.240;9.964;2023-02-01T01:04:25;10.65;;;3.55;;
54909;SDS011;63189;51.240;9.964;2023-02-01T01:06:51;16.63;;;4.50;;
54909;SDS011;63189;51.240;9.964;2023-02-01T01:09:16;16.98;;;4.00;;
54909;SDS011;63189;51.240;9.964;2023-02-01T01:11:41;18.63;;;3.80;;
54909;SDS011;63189;51.240;9.964;2023-02-01T01:14:07;15.00;;;3.45;;
54909;SDS011;63189;51.240;9.964;2023-02-01T01:16:33;8.93;;;2.80;;
54909;SDS011;63189;51.240;9.964;2023-02-01T01:18:59;11.73;;;3.00;;
54909;SDS011;63189;51.240;9.964;2023-02-01T01:21:25;12.90;;;3.13;;
54909;SDS011;63189;51.240;9.964;2023-02-01T01:23:51;14.93;;;4.03;;
54909;SDS011;63189;51.240;9.964;2023-02-01T01:26:18;13.07;;;2.80;;
54909;SDS011;63189;51.240;9.964;2023-02-01T01:28:46;15.82;;;3.45;;
54909;SDS011;63189;51.240;9.964;2023-02-01T01:31:12;24.02;;;3.53;;
54909;SDS011;63189;51.240;9.964;2023-02-01T01:33:39;23.77;;;4.05;;
54909;SDS011;63189;51.240;9.964;2023-02-01T01:36:08;11.20;;;3.65;;
54909;SDS011;63189;51.240;9.964;2023-02-01T01:38:37;18.13;;;3.17;;
54909;SDS011;63189;51.240;9.964;2023-02-01T01:41:03;17.25;;;3.85;;
54909;SDS011;63189;51.240;9.964;2023-02-01T01:51:33;15.23;;;3.35;;
54909;SDS011;63189;51.240;9.964;2023-02-01T01:54:09;14.57;;;2.67;;
54909;SDS011;63189;51.240;9.964;2023-02-01T01:56:38;12.15;;;2.60;;
54909;SDS011;63189;51.240;9.964;2023-02-01T01:59:09;15.75;;;3.40;;
54909;SDS011;63189;51.240;9.964;2023-02-01T02:01:36;17.20;;;3.80;;
54909;SDS011;63189;51.240;9.964;2023-02-01T02:04:02;19.05;;;3.08;;
54909;SDS011;63189;51.240;9.964;2023-02-01T02:11:58;15.57;;;3.55;;
54909;SDS011;63189;51.240;9.964;2023-02-01T02:18:01;16.05;;;3.05;;
54909;SDS011;63189;51.240;9.964;2023-02-01T02:30:02;14.88;;;3.63;;
54909;SDS011;63189;51.240;9.964;2023-02-01T02:35:56;15.13;;;3.58;;
54909;SDS011;63189;51.240;9.964;2023-02-01T02:38:45;16.02;;;3.53;;
54909;SDS011;63189;51.240;9.964;2023-02-01T02:44:44;17.05;;;4.20;;
54909;SDS011;63189;51.240;9.964;2023-02-01T02:47:34;16.40;;;3.05;;
54909;SDS011;63189;51.240;9.964;2023-02-01T02:53:05;14.85;;;3.75;;
54909;SDS011;63189;51.240;9.964;2023-02-01T02:55:57;5.97;;;2.17;;
54909;SDS011;63189;51.240;9.964;2023-02-01T02:58:43;11.43;;;2.80;;
54909;SDS011;63189;51.240;9.964;2023-02-01T03:01:30;15.13;;;3.40;;
54909;SDS011;63189;51.240;9.964;2023-02-01T03:04:24;18.05;;;3.47;;
54909;SDS011;63189;51.240;9.964;2023-02-01T03:06:51;13.70;;;3.53;;
54909;SDS011;63189;51.240;9.964;2023-02-01T03:09:28;9.45;;;2.90;;
54909;SDS011;63189;51.240;9.964;2023-02-01T03:12:03;8.13;;;2.78;;
54909;SDS011;63189;51.240;9.964;2023-02-01T03:14:54;10.73;;;2.55;;
54909;SDS011;63189;51.240;9.964;2023-02-01T03:17:27;11.52;;;3.35;;
54909;SDS011;63189;51.240;9.964;2023-02-01T03:22:35;12.80;;;3.70;;
54909;SDS011;63189;51.240;9.964;2023-02-01T03:25:04;11.93;;;3.30;;
54909;SDS011;63189;51.240;9.964;2023-02-01T03:27:41;13.05;;;3.20;;
54909;SDS011;63189;51.240;9.964;2023-02-01T03:30:17;11.00;;;2.97;;
54909;SDS011;63189;51.240;9.964;2023-02-01T03:32:47;11.85;;;3.40;;
54909;SDS011;63189;51.240;9.964;2023-02-01T03:35:35;8.32;;;2.90;;
54909;SDS011;63189;51.240;9.964;2023-02-01T03:40:42;13.18;;;3.03;;
54909;SDS011;63189;51.240;9.964;2023-02-01T03:43:15;20.80;;;4.15;;
54909;SDS011;63189;51.240;9.964;2023-02-01T03:45:46;14.25;;;3.65;;
54909;SDS011;63189;51.240;9.964;2023-02-01T03:48:23;14.45;;;3.38;;
54909;SDS011;63189;51.240;9.964;2023-02-01T03:50:55;10.35;;;3.17;;
54909;SDS011;63189;51.240;9.964;2023-02-01T03:53:24;15.70;;;3.88;;
54909;SDS011;63189;51.240;9.964;2023-02-01T03:55:53;16.92;;;3.70;;
54909;SDS011;63189;51.240;9.964;2023-02-01T03:58:20;13.35;;;3.33;;
54909;SDS011;63189;51.240;9.964;2023-02-01T04:00:52;11.30;;;3.22;;
54909;SDS011;63189;51.240;9.964;2023-02-01T04:03:22;16.67;;;3.47;;
54909;SDS011;63189;51.240;9.964;2023-02-01T04:05:48;10.88;;;2.30;;
54909;SDS011;63189;51.240;9.964;2023-02-01T04:08:17;19.45;;;3.65;;
54909;SDS011;63189;51.240;9.964;2023-02-01T04:10:44;18.00;;;4.05;;
54909;SDS011;63189;51.240;9.964;2023-02-01T04:13:11;17.05;;;3.15;;
54909;SDS011;63189;51.240;9.964;2023-02-01T04:15:37;14.18;;;3.65;;
54909;SDS011;63189;51.240;9.964;2023-02-01T04:18:03;15.55;;;2.97;;
54909;SDS011;63189;51.240;9.964;2023-02-01T04:20:29;16.90;;;3.60;;
54909;SDS011;63189;51.240;9.964;2023-02-01T04:22:54;13.70;;;3.53;;
54909;SDS011;63189;51.240;9.964;2023-02-01T04:25:20;14.75;;;3.67;;
54909;SDS011;63189;51.240;9.964;2023-02-01T04:27:50;11.48;;;3.15;;
54909;SDS011;63189;51.240;9.964;2023-02-01T04:30:15;19.13;;;3.90;;
54909;SDS011;63189;51.240;9.964;2023-02-01T04:32:41;17.02;;;4.20;;
54909;SDS011;63189;51.240;9.964;2023-02-01T04:35:07;19.92;;;4.28;;
54909;SDS011;63189;51.240;9.964;2023-02-01T04:37:33;15.48;;;3.92;;
54909;SDS011;63189;51.240;9.964;2023-02-01T04:39:59;14.23;;;3.03;;
54909;SDS011;63189;51.240;9.964;2023-02-01T04:42:26;14.18;;;3.45;;
54909;SDS011;63189;51.240;9.964;2023-02-01T04:44:51;12.93;;;3.45;;
54909;SDS011;63189;51.240;9.964;2023-02-01T04:47:17;12.40;;;2.83;;
54909;SDS011;63189;51.240;9.964;2023-02-01T04:49:42;11.43;;;3.17;;
54909;SDS011;63189;51.240;9.964;2023-02-01T04:52:09;14.63;;;2.97;;
54909;SDS011;63189;51.240;9.964;2023-02-01T04:54:36;13.07;;;3.30;;
54909;SDS011;63189;51.240;9.964;2023-02-01T04:57:02;12.75;;;3.15;;
54909;SDS011;63189;51.240;9.964;2023-02-01T04:59:27;15.05;;;3.38;;
54909;SDS011;63189;51.240;9.964;2023-02-01T05:02:00;11.30;;;3.58;;
54909;SDS011;63189;51.240;9.964;2023-02-01T05:04:25;14.27;;;3.30;;
54909;SDS011;63189;51.240;9.964;2023-02-01T05:06:50;17.98;;;4.25;;
54909;SDS011;63189;51.240;9.964;2023-02-01T05:09:16;19.83;;;3.10;;
54909;SDS011;63189;51.240;9.964;2023-02-01T05:11:41;12.73;;;3.15;;
54909;SDS011;63189;51.240;9.964;2023-02-01T05:16:56;18.23;;;3.55;;
54909;SDS011;63189;51.240;9.964;2023-02-01T05:19:22;16.77;;;3.95;;
54909;SDS011;63189;51.240;9.964;2023-02-01T05:21:49;16.90;;;3.40;;
54909;SDS011;63189;51.240;9.964;2023-02-01T05:26:48;15.60;;;3.60;;
54909;SDS011;63189;51.240;9.964;2023-02-01T05:29:14;19.48;;;3.92;;
54909;SDS011;63189;51.240;9.964;2023-02-01T05:31:41;12.32;;;3.20;;
54909;SDS011;63189;51.240;9.964;2023-02-01T05:34:11;12.23;;;3.72;;
54909;SDS011;63189;51.240;9.964;2023-02-01T05:36:37;15.30;;;3.42;;
54909;SDS011;63189;51.240;9.964;2023-02-01T05:39:05;22.98;;;3.05;;
54909;SDS011;63189;51.240;9.964;2023-02-01T05:41:31;15.77;;;3.35;;
54909;SDS011;63189;51.240;9.964;2023-02-01T05:43:57;13.88;;;3.60;;
54909;SDS011;63189;51.240;9.964;2023-02-01T05:46:22;14.75;;;3.22;;
54909;SDS011;63189;51.240;9.964;2023-02-01T05:48:48;12.32;;;3.20;;
54909;SDS011;63189;51.240;9.964;2023-02-01T05:51:13;15.50;;;2.90;;
54909;SDS011;63189;51.240;9.964;2023-02-01T05:53:39;16.42;;;2.95;;
54909;SDS011;63189;51.240;9.964;2023-02-01T05:56:04;12.55;;;3.08;;
54909;SDS011;63189;51.240;9.964;2023-02-01T05:58:30;12.18;;;3.22;;
54909;SDS011;63189;51.240;9.964;2023-02-01T06:00:58;14.48;;;4.13;;
54909;SDS011;63189;51.240;9.964;2023-02-01T06:03:26;16.45;;;3.22;;
54909;SDS011;63189;51.240;9.964;2023-02-01T06:05:52;16.92;;;3.22;;
54909;SDS011;63189;51.240;9.964;2023-02-01T06:08:17;13.18;;;3.40;;
54909;SDS011;63189;51.240;9.964;2023-02-01T06:10:43;19.23;;;3.03;;
54909;SDS011;63189;51.240;9.964;2023-02-01T06:13:08;20.77;;;3.50;;
54909;SDS011;63189;51.240;9.964;2023-02-01T06:15:34;12.90;;;2.72;;
54909;SDS011;63189;51.240;9.964;2023-02-01T06:18:00;15.52;;;3.33;;
54909;SDS011;63189;51.240;9.964;2023-02-01T06:20:25;9.20;;;2.65;;
54909;SDS011;63189;51.240;9.964;2023-02-01T06:22:50;14.38;;;2.85;;
54909;SDS011;63189;51.240;9.964;2023-02-01T06:25:17;12.82;;;3.10;;
54909;SDS011;63189;51.240;9.964;2023-02-01T06:27:43;14.23;;;3.28;;
54909;SDS011;63189;51.240;9.964;2023-02-01T06:30:10;10.73;;;2.97;;
54909;SDS011;63189;51.240;9.964;2023-02-01T06:32:38;15.95;;;3.22;;
54909;SDS011;63189;51.240;9.964;2023-02-01T06:35:04;14.52;;;3.17;;
54909;SDS011;63189;51.240;9.964;2023-02-01T06:37:30;14.63;;;3.10;;
54909;SDS011;63189;51.240;9.964;2023-02-01T06:39:55;9.95;;;3.15;;
54909;SDS011;63189;51.240;9.964;2023-02-01T06:42:20;17.00;;;3.80;;
54909;SDS011;63189;51.240;9.964;2023-02-01T06:44:46;12.05;;;3.40;;
54909;SDS011;63189;51.240;9.964;2023-02-01T06:47:11;11.13;;;2.85;;
54909;SDS011;63189;51.240;9.964;2023-02-01T06:49:36;11.55;;;3.10;;
54909;SDS011;63189;51.240;9.964;2023-02-01T06:52:02;19.88;;;4.03;;
54909;SDS011;63189;51.240;9.964;2023-02-01T06:54:27;20.80;;;3.67;;
54909;SDS011;63189;51.240;9.964;2023-02-01T06:56:54;9.82;;;2.70;;
54909;SDS011;63189;51.240;9.964;2023-02-01T06:59:20;13.00;;;2.80;;
54909;SDS011;63189;51.240;9.964;2023-02-01T07:01:45;12.30;;;3.08;;
54909;SDS011;63189;51.240;9.964;2023-02-01T07:04:11;11.43;;;3.22;;
54909;SDS011;63189;51.240;9.964;2023-02-01T07:06:37;12.80;;;2.65;;
54909;SDS011;63189;51.240;9.964;2023-02-01T07:09:03;14.20;;;3.22;;
54909;SDS011;63189;51.240;9.964;2023-02-01T07:11:29;17.00;;;3.60;;
54909;SDS011;63189;51.240;9.964;2023-02-01T07:13:55;15.13;;;2.90;;
54909;SDS011;63189;51.240;9.964;2023-02-01T07:16:21;15.07;;;3.03;;
54909;SDS011;63189;51.240;9.964;2023-02-01T07:18:46;11.20;;;2.67;;
54909;SDS011;63189;51.240;9.964;2023-02-01T07:21:12;12.05;;;3.00;;
54909;SDS011;63189;51.240;9.964;2023-02-01T07:23:37;13.52;;;3.10;;
54909;SDS011;63189;51.240;9.964;2023-02-01T07:26:04;10.90;;;2.80;;
54909;SDS011;63189;51.240;9.964;2023-02-01T07:28:32;12.73;;;2.53;;
54909;SDS011;63189;51.240;9.964;2023-02-01T07:31:06;17.63;;;3.72;;
54909;SDS011;63189;51.240;9.964;2023-02-01T07:33:33;11.40;;;3.28;;
54909;SDS011;63189;51.240;9.964;2023-02-01T07:36:00;14.60;;;4.00;;
54909;SDS011;63189;51.240;9.964;2023-02-01T07:38:27;17.17;;;3.42;;
54909;SDS011;63189;51.240;9.964;2023-02-01T07:40:56;13.45;;;2.55;;
54909;SDS011;63189;51.240;9.964;2023-02-01T07:43:25;13.23;;;2.97;;
54909;SDS011;63189;51.240;9.964;2023-02-01T07:45:52;12.60;;;2.80;;
54909;SDS011;63189;51.240;9.964;2023-02-01T07:48:19;14.30;;;3.28;;
54909;SDS011;63189;51.240;9.964;2023-02-01T07:50:47;15.90;;;3.70;;
54909;SDS011;63189;51.240;9.964;2023-02-01T07:53:13;8.48;;;3.25;;
54909;SDS011;63189;51.240;9.964;2023-02-01T07:55:39;8.15;;;2.75;;
54909;SDS011;63189;51.240;9.964;2023-02-01T07:58:05;13.13;;;3.97;;
54909;SDS011;63189;51.240;9.964;2023-02-01T08:00:31;9.90;;;3.03;;
54909;SDS011;63189;51.240;9.964;2023-02-01T08:05:46;14.00;;;3.30;;
54909;SDS011;63189;51.240;9.964;2023-02-01T08:08:11;11.50;;;3.58;;
54909;SDS011;63189;51.240;9.964;2023-02-01T08:10:39;12.25;;;3.15;;
54909;SDS011;63189;51.240;9.964;2023-02-01T08:13:04;9.50;;;2.75;;
54909;SDS011;63189;51.240;9.964;2023-02-01T08:15:29;11.80;;;3.15;;
54909;SDS011;63189;51.240;9.964;2023-02-01T08:17:55;14.30;;;3.20;;
54909;SDS011;63189;51.240;9.964;2023-02-01T08:20:21;9.27;;;2.92;;
54909;SDS011;63189;51.240;9.964;2023-02-01T08:22:56;11.23;;;3.10;;
54909;SDS011;63189;51.240;9.964;2023-02-01T08:25:22;14.98;;;3.53;;
54909;SDS011;63189;51.240;9.964;2023-02-01T08:27:48;13.57;;;3.78;;
54909;SDS011;63189;51.240;9.964;2023-02-01T08:30:13;11.13;;;2.97;;
54909;SDS011;63189;51.240;9.964;2023-02-01T08:32:39;12.13;;;3.78;;
54909;SDS011;63189;51.240;9.964;2023-02-01T08:35:05;8.60;;;2.85;;
54909;SDS011;63189;51.240;9.964;2023-02-01T08:37:30;13.50;;;3.42;;
54909;SDS011;63189;51.240;9.964;2023-02-01T08:39:56;14.60;;;3.40;;
54909;SDS011;63189;51.240;9.964;2023-02-01T08:42:22;10.45;;;3.35;;
54909;SDS011;63189;51.240;9.964;2023-02-01T08:47:32;9.80;;;3.50;;
54909;SDS011;63189;51.240;9.964;2023-02-01T08:49:59;11.65;;;4.75;;
54909;SDS011;63189;51.240;9.964;2023-02-01T08:52:24;12.68;;;4.18;;
54909;SDS011;63189;51.240;9.964;2023-02-01T08:54:49;14.07;;;3.13;;
54909;SDS011;63189;51.240;9.964;2023-02-01T08:57:15;12.30;;;3.55;;
54909;SDS011;63189;51.240;9.964;2023-02-01T08:59:40;14.32;;;2.92;;
54909;SDS011;63189;51.240;9.964;2023-02-01T09:02:08;10.48;;;3.22;;
54909;SDS011;63189;51.240;9.964;2023-02-01T09:04:36;10.77;;;2.70;;
54909;SDS011;63189;51.240;9.964;2023-02-01T09:07:02;14.38;;;2.97;;
54909;SDS011;63189;51.240;9.964;2023-02-01T09:09:27;12.82;;;3.03;;
54909;SDS011;63189;51.240;9.964;2023-02-01T09:11:53;11.07;;;3.13;;
54909;SDS011;63189;51.240;9.964;2023-02-01T09:14:18;13.50;;;2.80;;
54909;SDS011;63189;51.240;9.964;2023-02-01T09:16:44;14.45;;;3.53;;
54909;SDS011;63189;51.240;9.964;2023-02-01T09:19:09;8.60;;;2.50;;
54909;SDS011;63189;51.240;9.964;2023-02-01T09:21:35;11.73;;;3.00;;
54909;SDS011;63189;51.240;9.964;2023-02-01T09:24:00;7.32;;;2.63;;
54909;SDS011;63189;51.240;9.964;2023-02-01T09:26:26;12.27;;;2.47;;
54909;SDS011;63189;51.240;9.964;2023-02-01T09:28:51;13.20;;;3.05;;
54909;SDS011;63189;51.240;9.964;2023-02-01T09:31:18;10.15;;;2.72;;
54909;SDS011;63189;51.240;9.964;2023-02-01T09:33:44;7.43;;;2.60;;
54909;SDS011;63189;51.240;9.964;2023-02-01T09:36:09;15.70;;;2.63;;
54909;SDS011;63189;51.240;9.964;2023-02-01T09:38:35;7.55;;;2.78;;
54909;SDS011;63189;51.240;9.964;2023-02-01T09:41:07;9.57;;;3.22;;
54909;SDS011;63189;51.240;9.964;2023-02-01T09:43:48;13.93;;;3.83;;
54909;SDS011;63189;51.240;9.964;2023-02-01T09:46:30;14.73;;;2.85;;
54909;SDS011;63189;51.240;9.964;2023-02-01T09:48:59;8.88;;;3.20;;
54909;SDS011;63189;51.240;9.964;2023-02-01T09:51:36;10.77;;;2.85;;
54909;SDS011;63189;51.240;9.964;2023-02-01T09:54:15;13.27;;;3.83;;
54909;SDS011;63189;51.240;9.964;2023-02-01T09:56:53;12.13;;;3.55;;
54909;SDS011;63189;51.240;9.964;2023-02-01T09:59:41;9.90;;;2.63;;
54909;SDS011;63189;51.240;9.964;2023-02-01T10:02:21;12.75;;;3.47;;
54909;SDS011;63189;51.240;9.964;2023-02-01T10:04:49;18.67;;;3.13;;
54909;SDS011;63189;51.240;9.964;2023-02-01T10:10:11;11.25;;;2.83;;
54909;SDS011;63189;51.240;9.964;2023-02-01T10:12:51;11.90;;;2.53;;
54909;SDS011;63189;51.240;9.964;2023-02-01T10:15:26;8.50;;;2.33;;
54909;SDS011;63189;51.240;9.964;2023-02-01T10:24:07;13.48;;;3.00;;
54909;SDS011;63189;51.240;9.964;2023-02-01T10:26:59;7.93;;;2.75;;
54909;SDS011;63189;51.240;9.964;2023-02-01T10:29:31;7.75;;;2.95;;
54909;SDS011;63189;51.240;9.964;2023-02-01T10:34:31;9.85;;;2.58;;
54909;SDS011;63189;51.240;9.964;2023-02-01T10:37:17;12.23;;;3.38;;
54909;SDS011;63189;51.240;9.964;2023-02-01T10:39:48;9.27;;;2.55;;
54909;SDS011;63189;51.240;9.964;2023-02-01T10:42:15;7.45;;;2.95;;
54909;SDS011;63189;51.240;9.964;2023-02-01T10:44:43;9.48;;;2.97;;
54909;SDS011;63189;51.240;9.964;2023-02-01T10:47:10;15.60;;;3.70;;
54909;SDS011;63189;51.240;9.964;2023-02-01T10:49:47;15.48;;;2.78;;
54909;SDS011;63189;51.240;9.964;2023-02-01T10:52:20;11.88;;;3.50;;
54909;SDS011;63189;51.240;9.964;2023-02-01T10:54:56;17.85;;;3.15;;
54909;SDS011;63189;51.240;9.964;2023-02-01T10:57:41;11.15;;;3.90;;
54909;SDS011;63189;51.240;9.964;2023-02-01T11:00:20;8.98;;;3.00;;
54909;SDS011;63189;51.240;9.964;2023-02-01T11:02:46;10.57;;;3.10;;
54909;SDS011;63189;51.240;9.964;2023-02-01T11:05:15;13.48;;;3.85;;
54909;SDS011;63189;51.240;9.964;2023-02-01T11:07:47;14.68;;;3.63;;
54909;SDS011;63189;51.240;9.964;2023-02-01T11:13:01;12.75;;;3.28;;
54909;SDS011;63189;51.240;9.964;2023-02-01T11:15:28;13.70;;;3.35;;
54909;SDS011;63189;51.240;9.964;2023-02-01T11:17:54;10.77;;;3.67;;
54909;SDS011;63189;51.240;9.964;2023-02-01T11:20:35;9.95;;;2.85;;
54909;SDS011;63189;51.240;9.964;2023-02-01T11:23:17;7.97;;;2.67;;
54909;SDS011;63189;51.240;9.964;2023-02-01T11:25:48;10.40;;;3.15;;
54909;SDS011;63189;51.240;9.964;2023-02-01T11:28:16;13.57;;;3.20;;
54909;SDS011;63189;51.240;9.964;2023-02-01T11:30:43;15.20;;;3.95;;
54909;SDS011;63189;51.240;9.964;2023-02-01T11:33:18;11.13;;;3.65;;
54909;SDS011;63189;51.240;9.964;2023-02-01T11:38:20;19.58;;;3.85;;
54909;SDS011;63189;51.240;9.964;2023-02-01T11:43:50;16.48;;;4.78;;
54909;SDS011;63189;51.240;9.964;2023-02-01T11:46:22;12.52;;;4.10;;
54909;SDS011;63189;51.240;9.964;2023-02-01T11:48:52;11.85;;;3.80;;
54909;SDS011;63189;51.240;9.964;2023-02-01T11:51:40;11.40;;;4.53;;
54909;SDS011;63189;51.240;9.964;2023-02-01T11:54:23;21.52;;;5.55;;
54909;SDS011;63189;51.240;9.964;2023-02-01T12:05:31;17.48;;;3.33;;
54909;SDS011;63189;51.240;9.964;2023-02-01T12:11:21;14.75;;;4.60;;
54909;SDS011;63189;51.240;9.964;2023-02-01T12:25:21;17.85;;;4.43;;
54909;SDS011;63189;51.240;9.964;2023-02-01T12:38:57;9.50;;;3.30;;
54909;SDS011;63189;51.240;9.964;2023-02-01T12:44:34;12.63;;;5.32;;
54909;SDS011;63189;51.240;9.964;2023-02-01T12:47:14;10.95;;;3.35;;
54909;SDS011;63189;51.240;9.964;2023-02-01T12:49:44;11.10;;;2.85;;
54909;SDS011;63189;51.240;9.964;2023-02-01T12:52:15;10.15;;;3.28;;
54909;SDS011;63189;51.240;9.964;2023-02-01T12:57:15;11.07;;;3.60;;
54909;SDS011;63189;51.240;9.964;2023-02-01T13:02:41;9.02;;;2.30;;
54909;SDS011;63189;51.240;9.964;2023-02-01T13:05:19;13.07;;;3.28;;
54909;SDS011;63189;51.240;9.964;2023-02-01T13:07:53;9.35;;;3.17;;
54909;SDS011;63189;51.240;9.964;2023-02-01T13:10:29;12.07;;;3.65;;
54909;SDS011;63189;51.240;9.964;2023-02-01T13:15:51;10.82;;;3.03;;
54909;SDS011;63189;51.240;9.964;2023-02-01T13:18:25;11.55;;;3.25;;
54909;SDS011;63189;51.240;9.964;2023-02-01T13:21:04;8.82;;;2.38;;
54909;SDS011;63189;51.240;9.964;2023-02-01T13:23:34;9.48;;;2.50;;
54909;SDS011;63189;51.240;9.964;2023-02-01T13:26:04;7.72;;;2.92;;
54909;SDS011;63189;51.240;9.964;2023-02-01T13:28:31;8.20;;;2.75;;
54909;SDS011;63189;51.240;9.964;2023-02-01T13:39:45;14.48;;;3.05;;
54909;SDS011;63189;51.240;9.964;2023-02-01T13:44:52;10.20;;;2.55;;
54909;SDS011;63189;51.240;9.964;2023-02-01T13:47:30;10.38;;;3.15;;
54909;SDS011;63189;51.240;9.964;2023-02-01T13:49:59;11.73;;;3.05;;
54909;SDS011;63189;51.240;9.964;2023-02-01T13:52:37;7.65;;;2.58;;
54909;SDS011;63189;51.240;9.964;2023-02-01T13:55:24;10.77;;;2.83;;
54909;SDS011;63189;51.240;9.964;2023-02-01T13:58:02;12.38;;;2.97;;
54909;SDS011;63189;51.240;9.964;2023-02-01T14:00:42;11.18;;;2.67;;
54909;SDS011;63189;51.240;9.964;2023-02-01T14:03:10;15.82;;;3.20;;
54909;SDS011;63189;51.240;9.964;2023-02-01T14:26:45;7.78;;;2.63;;
54909;SDS011;63189;51.240;9.964;2023-02-01T14:34:40;7.45;;;2.70;;
54909;SDS011;63189;51.240;9.964;2023-02-01T14:40:00;6.07;;;2.15;;
54909;SDS011;63189;51.240;9.964;2023-02-01T14:42:30;6.78;;;2.50;;
54909;SDS011;63189;51.240;9.964;2023-02-01T14:47:51;9.55;;;2.83;;
54909;SDS011;63189;51.240;9.964;2023-02-01T14:50:38;9.65;;;2.85;;
54909;SDS011;63189;51.240;9.964;2023-02-01T15:01:29;4.88;;;2.47;;
54909;SDS011;63189;51.240;9.964;2023-02-01T15:04:08;10.57;;;3.00;;
54909;SDS011;63189;51.240;9.964;2023-02-01T15:09:16;6.40;;;2.83;;
54909;SDS011;63189;51.240;9.964;2023-02-01T15:11:56;10.35;;;3.17;;
54909;SDS011;63189;51.240;9.964;2023-02-01T15:20:55;5.65;;;2.05;;
54909;SDS011;63189;51.240;9.964;2023-02-01T15:23:22;5.25;;;2.40;;
54909;SDS011;63189;51.240;9.964;2023-02-01T15:28:34;5.32;;;2.22;;
54909;SDS011;63189;51.240;9.964;2023-02-01T15:31:10;12.38;;;3.25;;
54909;SDS011;63189;51.240;9.964;2023-02-01T15:36:30;5.70;;;2.47;;
54909;SDS011;63189;51.240;9.964;2023-02-01T15:42:19;6.50;;;2.50;;
54909;SDS011;63189;51.240;9.964;2023-02-01T15:44:47;6.05;;;2.70;;
54909;SDS011;63189;51.240;9.964;2023-02-01T15:47:17;8.02;;;2.78;;
54909;SDS011;63189;51.240;9.964;2023-02-01T15:49:54;5.53;;;2.65;;
54909;SDS011;63189;51.240;9.964;2023-02-01T15:52:30;6.13;;;2.75;;
54909;SDS011;63189;51.240;9.964;2023-02-01T15:55:01;6.65;;;2.50;;
54909;SDS011;63189;51.240;9.964;2023-02-01T16:00:08;7.78;;;2.63;;
54909;SDS011;63189;51.240;9.964;2023-02-01T16:06:25;6.78;;;2.95;;
54909;SDS011;63189;51.240;9.964;2023-02-01T16:11:41;5.80;;;2.90;;
54909;SDS011;63189;51.240;9.964;2023-02-01T16:14:07;8.55;;;2.63;;
54909;SDS011;63189;51.240;9.964;2023-02-01T16:19:08;7.53;;;2.95;;
54909;SDS011;63189;51.240;9.964;2023-02-01T16:21:33;5.82;;;2.88;;
54909;SDS011;63189;51.240;9.964;2023-02-01T16:24:00;6.97;;;3.42;;
54909;SDS011;63189;51.240;9.964;2023-02-01T16:26:29;7.10;;;3.42;;
54909;SDS011;63189;51.240;9.964;2023-02-01T16:28:58;8.82;;;2.90;;
54909;SDS011;63189;51.240;9.964;2023-02-01T16:34:56;8.32;;;3.92;;
54909;SDS011;63189;51.240;9.964;2023-02-01T16:40:20;9.50;;;3.05;;
54909;SDS011;63189;51.240;9.964;2023-02-01T16:42:51;7.75;;;2.22;;
54909;SDS011;63189;51.240;9.964;2023-02-01T16:45:18;8.75;;;3.08;;
54909;SDS011;63189;51.240;9.964;2023-02-01T16:47:45;4.80;;;2.08;;
54909;SDS011;63189;51.240;9.964;2023-02-01T16:52:49;4.80;;;1.40;;
54909;SDS011;63189;51.240;9.964;2023-02-01T16:55:15;4.35;;;1.67;;
54909;SDS011;63189;51.240;9.964;2023-02-01T16:57:43;7.85;;;3.95;;
54909;SDS011;63189;51.240;9.964;2023-02-01T17:00:09;3.47;;;2.05;;
54909;SDS011;63189;51.240;9.964;2023-02-01T17:02:36;3.55;;;1.98;;
54909;SDS011;63189;51.240;9.964;2023-02-01T17:05:03;5.40;;;2.22;;
54909;SDS011;63189;51.240;9.964;2023-02-01T17:07:29;5.13;;;2.45;;
54909;SDS011;63189;51.240;9.964;2023-02-01T17:09:54;5.43;;;2.95;;
54909;SDS011;63189;51.240;9.964;2023-02-01T17:12:27;9.27;;;3.25;;
54909;SDS011;63189;51.240;9.964;2023-02-01T17:14:56;11.95;;;3.97;;
54909;SDS011;63189;51.240;9.964;2023-02-01T17:17:22;7.15;;;3.10;;
54909;SDS011;63189;51.240;9.964;2023-02-01T17:19:50;8.55;;;2.53;;
54909;SDS011;63189;51.240;9.964;2023-02-01T17:22:18;6.57;;;2.85;;
54909;SDS011;63189;51.240;9.964;2023-02-01T17:27:21;9.43;;;4.30;;
54909;SDS011;63189;51.240;9.964;2023-02-01T17:29:48;7.88;;;3.65;;
54909;SDS011;63189;51.240;9.964;2023-02-01T17:32:15;6.32;;;3.30;;
54909;SDS011;63189;51.240;9.964;2023-02-01T17:34:44;9.27;;;4.13;;
54909;SDS011;63189;51.240;9.964;2023-02-01T17:39:55;5.60;;;2.10;;
54909;SDS011;63189;51.240;9.964;2023-02-01T17:42:27;2.97;;;1.40;;
54909;SDS011;63189;51.240;9.964;2023-02-01T17:47:49;2.72;;;0.88;;
54909;SDS011;63189;51.240;9.964;2023-02-01T17:50:14;3.80;;;1.02;;
54909;SDS011;63189;51.240;9.964;2023-02-01T17:52:41;3.47;;;1.30;;
54909;SDS011;63189;51.240;9.964;2023-02-01T17:55:17;2.47;;;0.90;;
54909;SDS011;63189;51.240;9.964;2023-02-01T17:57:51;2.40;;;0.88;;
54909;SDS011;63189;51.240;9.964;2023-02-01T18:00:17;2.70;;;1.00;;
54909;SDS011;63189;51.240;9.964;2023-02-01T18:02:46;1.75;;;1.02;;
54909;SDS011;63189;51.240;9.964;2023-02-01T18:08:02;3.47;;;1.80;;
54909;SDS011;63189;51.240;9.964;2023-02-01T18:10:27;5.50;;;1.77;;
54909;SDS011;63189;51.240;9.964;2023-02-01T18:12:53;3.42;;;1.60;;
54909;SDS011;63189;51.240;9.964;2023-02-01T18:15:26;5.72;;;1.95;;
54909;SDS011;63189;51.240;9.964;2023-02-01T18:17:57;5.38;;;1.60;;
54909;SDS011;63189;51.240;9.964;2023-02-01T18:20:27;6.93;;;1.70;;
54909;SDS011;63189;51.240;9.964;2023-02-01T18:23:01;5.38;;;1.60;;
54909;SDS011;63189;51.240;9.964;2023-02-01T18:25:27;3.10;;;1.80;;
54909;SDS011;63189;51.240;9.964;2023-02-01T18:27:54;13.10;;;3.58;;
54909;SDS011;63189;51.240;9.964;2023-02-01T18:30:27;8.70;;;3.60;;